• Join FlightAware (Why Join?)
  • Login
  • US Flag 
06:37PM EDT


 

Airport Tracker/Info


-or-


 

Live Flight TrackerFlight Track Log ✈ LXJ342 ✈ 30-Aug-2013 ✈ KDTW - KSBM

Flight Track Log - Related Links

Times and Time Zones

All times are in EDT time to prevent confusion due to time zone crossing. See the LXJ342 flight status page for this flight to view local times or setup timezone preferences in your user account.

Time Position Orientation Groundspeed Altitude Reporting Facility
EDT Latitude Longitude Course Direction KTS MPH feet Rate Location/Type
12:57PM 42.2058 -83.3556 227° Southwest 169 194 1,300  Level Cleveland Center
12:57PM 42.1756 -83.3992 227° Southwest 210 242 4,300 3,420 Climbing Cleveland Center
12:59PM 42.1711 -83.4969 267° West 246 283 8,600 3,060 Climbing Cleveland Center
01:00PM 42.2386 -83.5394 335° Northwest 246 283 11,400 2,640 Climbing Cleveland Center
01:01PM 42.3269 -83.5153 11° North 285 328 13,900 2,640 Climbing Cleveland Center
01:02PM 42.4231 -83.5031 North 331 381 16,700 2,580 Climbing Cleveland Center
01:03PM 42.5094 -83.5492 339° North 337 388 19,100 2,400 Climbing Cleveland Center
01:04PM 42.5958 -83.6011 336° Northwest 342 394 21,600 1,920 Climbing Cleveland Center
01:05PM 42.6750 -83.6728 326° Northwest 342 394 23,000 1,500 Climbing Cleveland Center
01:06PM 42.7217 -83.7967 297° West 342 394 24,700 1,500 Climbing Cleveland Center
01:07PM 42.7703 -83.9236 298° West 362 417 26,000 600 Climbing Cleveland Center
01:08PM 42.8183 -84.0564 296° West 376 433 26,000  Level Cleveland Center
01:09PM 42.8706 -84.1953 297° West 400 460 26,000  Level Cleveland Center
01:10PM 42.9206 -84.3258 298° West 400 460 26,000  Level Cleveland Center
01:11PM 42.9656 -84.4394 298° West 399 459 26,000  Level Chicago Center
01:12PM 43.0158 -84.5753 297° West 403 464 26,000  Level Chicago Center
01:13PM 43.0556 -84.7167 291° West 400 460 26,000  Level Chicago Center
01:14PM 43.0906 -84.8600 289° West 399 459 26,000  Level Chicago Center
01:15PM 43.1256 -85.0042 288° West 401 461 26,000  Level Chicago Center
01:16PM 43.1678 -85.1800 288° West 406 467 26,000  Level Chicago Center
01:17PM 43.2022 -85.3250 288° West 404 465 26,000 -60 Level Chicago Center
01:18PM 43.2367 -85.4711 288° West 405 466 25,900 -540 Descending Chicago Center
01:19PM 43.2722 -85.6189 288° West 410 472 24,900 -960 Descending Chicago Center
01:20PM 43.3067 -85.7653 288° West 410 472 24,000 -480 Descending Chicago Center
01:21PM 43.3461 -85.9372 288° West 400 460 24,000  Level Chicago Center
01:22PM 43.3803 -86.0819 288° West 402 463 24,000  Level Chicago Center
01:23PM 43.4169 -86.2375 288° West 424 488 24,000 -480 Level Chicago Center
01:24PM 43.4531 -86.3964 287° West 436 502 23,100 -1,380 Descending Chicago Center
01:25PM 43.4878 -86.5583 287° West 436 502 21,200 -1,980 Descending Chicago Center
01:26PM 43.5272 -86.7331 287° West 414 476 19,100 -1,980 Descending Chicago Center
01:27PM 43.5600 -86.8772 287° West 399 459 17,200 -1,800 Descending Chicago Center
01:28PM 43.5911 -87.0156 287° West 384 442 15,400 -1,620 Descending Chicago Center
01:29PM 43.6208 -87.1525 287° West 376 433 13,900 -2,040 Descending Chicago Center
01:30PM 43.6467 -87.2733 286° West 336 387 11,200 -2,640 Descending Chicago Center
01:31PM 43.6719 -87.3883 287° West 268 308 8,500 -2,760 Descending Chicago Center
01:32PM 43.6928 -87.4833 287° West 259 298 5,500 -2,760 Descending Chicago Center
01:33PM 43.7139 -87.5758 288° West 255 293 2,900 -1,440 Descending Chicago Center
01:34PM 43.7306 -87.6533 287° West 223 257 2,600 -180 Descending Chicago Center
01:35PM 43.7578 -87.7319 296° West 202 232 2,600 -180 Level Chicago Center
01:36PM 43.7964 -87.7814 317° Northwest 195 224 2,300 -540 Descending Chicago Center
01:37PM 43.8019 -87.8203 281° West 168 193 1,500 -780 Descending Chicago Center